AUA207V LOWW-EDDF
Flight info
| Callsign | AUA207V |
|---|---|
| Flight time | N/A |
| Altitude | 34000 |
| Route | UMSU3C/29 BUWUT DCT DITIS DCT RAPET T170 GAPLA/N0387F240 T178 KERAX KERAX5D |
| Aircraft | A320/M-SDE3FGHIRWY/LB1 |
Departure
| Time | 2026-04-22 19:01 |
|---|---|
| Airport | Vienna International Airport (LOWW) |
Arrival
| Time | N/A |
|---|---|
| Airport | Frankfurt Main Airport (EDDF) |
| Time | Latitude | Longitude | Altitude | Speed | Heading |
|---|---|---|---|---|---|
| 2026-04-22 18:31 | 48.11897 | 16.56767 | 609 ft | 0 kts | 206° |
| 2026-04-22 18:48 | 48.11918 | 16.56781 | 620 ft | 4 kts | 197° |
| 2026-04-22 18:48 | 48.11944 | 16.56789 | 618 ft | 4 kts | 178° |
| 2026-04-22 18:48 | 48.11969 | 16.56781 | 618 ft | 4 kts | 138° |
| 2026-04-22 18:49 | 48.11976 | 16.56769 | 624 ft | 0 kts | 116° |
| 2026-04-22 18:52 | 48.11975 | 16.56771 | 624 ft | 1 kts | 116° |
| 2026-04-22 18:53 | 48.11962 | 16.56812 | 622 ft | 8 kts | 115° |
| 2026-04-22 18:53 | 48.11933 | 16.56902 | 613 ft | 10 kts | 115° |
| 2026-04-22 18:53 | 48.11904 | 16.56992 | 609 ft | 9 kts | 115° |
| 2026-04-22 18:53 | 48.11878 | 16.57074 | 609 ft | 8 kts | 115° |
| 2026-04-22 18:54 | 48.11856 | 16.57170 | 612 ft | 12 kts | 94° |
| 2026-04-22 18:54 | 48.11831 | 16.57286 | 614 ft | 11 kts | 117° |
| 2026-04-22 18:54 | 48.11808 | 16.57403 | 618 ft | 14 kts | 83° |
| 2026-04-22 18:54 | 48.11729 | 16.57504 | 619 ft | 19 kts | 165° |
| 2026-04-22 18:55 | 48.11608 | 16.57556 | 616 ft | 18 kts | 164° |
| 2026-04-22 18:55 | 48.11495 | 16.57603 | 614 ft | 16 kts | 165° |
| 2026-04-22 18:55 | 48.11391 | 16.57647 | 610 ft | 15 kts | 164° |
| 2026-04-22 18:55 | 48.11307 | 16.57684 | 611 ft | 10 kts | 164° |
| 2026-04-22 18:56 | 48.11258 | 16.57679 | 609 ft | 0 kts | 208° |
| 2026-04-22 18:56 | 48.11256 | 16.57677 | 609 ft | 2 kts | 206° |
| 2026-04-22 18:56 | 48.11225 | 16.57654 | 619 ft | 7 kts | 206° |
| 2026-04-22 18:57 | 48.11186 | 16.57626 | 609 ft | 6 kts | 206° |
| 2026-04-22 18:57 | 48.11175 | 16.57618 | 615 ft | 0 kts | 205° |
| 2026-04-22 18:58 | 48.11174 | 16.57617 | 615 ft | 1 kts | 205° |
| 2026-04-22 18:59 | 48.11135 | 16.57585 | 614 ft | 11 kts | 215° |
| 2026-04-22 18:59 | 48.11074 | 16.57524 | 610 ft | 9 kts | 207° |
| 2026-04-22 18:59 | 48.11062 | 16.57515 | 616 ft | 0 kts | 206° |
| 2026-04-22 18:59 | 48.11059 | 16.57513 | 615 ft | 2 kts | 206° |
| 2026-04-22 19:00 | 48.11025 | 16.57487 | 620 ft | 9 kts | 206° |
| 2026-04-22 19:00 | 48.10963 | 16.57444 | 618 ft | 9 kts | 209° |
| 2026-04-22 19:00 | 48.10962 | 16.57386 | 612 ft | 0 kts | 299° |
| 2026-04-22 19:00 | 48.10964 | 16.57381 | 612 ft | 4 kts | 299° |
| 2026-04-22 19:01 | 48.11054 | 16.57110 | 610 ft | 66 kts | 296° |
| 2026-04-22 19:01 | 48.11357 | 16.56174 | 609 ft | 130 kts | 296° |
| 2026-04-22 19:01 | 48.11822 | 16.54735 | 772 ft | 165 kts | 297° |
| 2026-04-22 19:01 | 48.12244 | 16.53180 | 1588 ft | 161 kts | 282° |
| 2026-04-22 19:02 | 48.11953 | 16.51515 | 2263 ft | 182 kts | 236° |
| 2026-04-22 19:02 | 48.10893 | 16.50255 | 2640 ft | 211 kts | 217° |
| 2026-04-22 19:02 | 48.09602 | 16.48993 | 3136 ft | 228 kts | 216° |
| 2026-04-22 19:02 | 48.08279 | 16.47654 | 3987 ft | 229 kts | 224° |
| 2026-04-22 19:03 | 48.07265 | 16.45820 | 4687 ft | 235 kts | 248° |
| 2026-04-22 19:03 | 48.06551 | 16.43497 | 5147 ft | 258 kts | 251° |
| 2026-04-22 19:03 | 48.05796 | 16.40952 | 5802 ft | 273 kts | 250° |
| 2026-04-22 19:03 | 48.05025 | 16.38364 | 6716 ft | 278 kts | 250° |
| 2026-04-22 19:04 | 48.04490 | 16.36576 | 7322 ft | 280 kts | 250° |
| 2026-04-22 19:04 | 48.04157 | 16.35467 | 7724 ft | 281 kts | 250° |
| 2026-04-22 19:04 | 48.03503 | 16.32714 | 8629 ft | 282 kts | 262° |
| 2026-04-22 19:05 | 48.03434 | 16.32163 | 8800 ft | 281 kts | 265° |
| 2026-04-22 19:05 | 48.03511 | 16.29469 | 9614 ft | 279 kts | 282° |
| 2026-04-22 19:05 | 48.03702 | 16.26525 | 10359 ft | 292 kts | 278° |
| 2026-04-22 19:06 | 48.03851 | 16.23376 | 10666 ft | 314 kts | 281° |
| 2026-04-22 19:06 | 48.04307 | 16.20100 | 11121 ft | 327 kts | 291° |
| 2026-04-22 19:06 | 48.05220 | 16.16970 | 11852 ft | 330 kts | 301° |
| 2026-04-22 19:07 | 48.07377 | 16.10836 | 13370 ft | 340 kts | 302° |
| 2026-04-22 19:07 | 48.08503 | 16.07674 | 14133 ft | 345 kts | 302° |
| 2026-04-22 19:07 | 48.09623 | 16.04520 | 14815 ft | 349 kts | 302° |
| 2026-04-22 19:07 | 48.10787 | 16.01234 | 15521 ft | 354 kts | 302° |
| 2026-04-22 19:08 | 48.12042 | 15.98061 | 16187 ft | 354 kts | 310° |
| 2026-04-22 19:08 | 48.13669 | 15.95306 | 16846 ft | 353 kts | 322° |
| 2026-04-22 19:08 | 48.15620 | 15.93098 | 17529 ft | 351 kts | 333° |
| 2026-04-22 19:08 | 48.17817 | 15.91506 | 18204 ft | 351 kts | 342° |
| 2026-04-22 19:09 | 48.20072 | 15.90165 | 18833 ft | 355 kts | 342° |
| 2026-04-22 19:09 | 48.22375 | 15.88789 | 19397 ft | 359 kts | 342° |
| 2026-04-22 19:09 | 48.23950 | 15.87843 | 19787 ft | 361 kts | 342° |
| 2026-04-22 19:09 | 48.27067 | 15.85966 | 20571 ft | 366 kts | 342° |
| 2026-04-22 19:10 | 48.29437 | 15.84533 | 21159 ft | 369 kts | 342° |
| 2026-04-22 19:10 | 48.31840 | 15.83076 | 21750 ft | 373 kts | 342° |
| 2026-04-22 19:10 | 48.34263 | 15.81606 | 22337 ft | 377 kts | 342° |
| 2026-04-22 19:10 | 48.36680 | 15.80140 | 22900 ft | 380 kts | 342° |
| 2026-04-22 19:11 | 48.39150 | 15.78640 | 23452 ft | 384 kts | 342° |
| 2026-04-22 19:11 | 48.41641 | 15.77124 | 23955 ft | 388 kts | 342° |
| 2026-04-22 19:11 | 48.44154 | 15.75592 | 24378 ft | 391 kts | 343° |
| 2026-04-22 19:11 | 48.46696 | 15.74043 | 24781 ft | 395 kts | 343° |
| 2026-04-22 19:12 | 48.49264 | 15.72477 | 25180 ft | 399 kts | 343° |
| 2026-04-22 19:12 | 48.51824 | 15.70916 | 25576 ft | 403 kts | 343° |
| 2026-04-22 19:12 | 48.54437 | 15.69320 | 25962 ft | 406 kts | 343° |
| 2026-04-22 19:12 | 48.56972 | 15.67347 | 26333 ft | 418 kts | 330° |
| 2026-04-22 19:13 | 48.59137 | 15.64308 | 26687 ft | 431 kts | 317° |
| 2026-04-22 19:13 | 48.61157 | 15.60921 | 27078 ft | 434 kts | 317° |
| 2026-04-22 19:13 | 48.62490 | 15.58650 | 27321 ft | 437 kts | 317° |
| 2026-04-22 19:14 | 48.63459 | 15.57112 | 27406 ft | 435 kts | 323° |
| 2026-04-22 19:14 | 48.65746 | 15.54125 | 27781 ft | 437 kts | 322° |
| 2026-04-22 19:14 | 48.67870 | 15.50754 | 28158 ft | 445 kts | 316° |
| 2026-04-22 19:15 | 48.69180 | 15.48360 | 28397 ft | 449 kts | 314° |
| 2026-04-22 19:15 | 48.71740 | 15.43351 | 28746 ft | 456 kts | 313° |
| 2026-04-22 19:15 | 48.73705 | 15.39537 | 28976 ft | 461 kts | 314° |
| 2026-04-22 19:15 | 48.75740 | 15.35760 | 29299 ft | 463 kts | 316° |
| 2026-04-22 19:16 | 48.77842 | 15.32044 | 29615 ft | 465 kts | 317° |
| 2026-04-22 19:16 | 48.79998 | 15.28362 | 29923 ft | 467 kts | 318° |
| 2026-04-22 19:16 | 48.82192 | 15.24674 | 30236 ft | 470 kts | 318° |
| 2026-04-22 19:16 | 48.84394 | 15.20969 | 30506 ft | 473 kts | 317° |
| 2026-04-22 19:17 | 48.85106 | 15.19762 | 30593 ft | 474 kts | 317° |